Time;durP1;ratioP1;P1;durP2;ratioP2;P2;SDS_P1;SDS_P2;PMS_P1;PMS_P2;Temp;Humidity;BMP_temperature;BMP_pressure;BME280_temperature;BME280_humidity;BME280_pressure;Samples;Min_cycle;Max_cycle;Signal;HPM_P1;HPM_P2
2023/10/14 00:00:26;;;;;;;7.97;3.65;;;24.80;65.90;;;;;;6226386;27;80568;-59
2023/10/14 00:03:32;;;;;;;5.55;3.45;;;24.90;65.40;;;;;;6225367;27;85266;-59
2023/10/14 00:06:38;;;;;;;7.15;4.38;;;24.80;65.40;;;;;;6225889;28;80191;-57
2023/10/14 00:09:49;;;;;;;7.13;3.70;;;24.80;65.40;;;;;;6227293;28;81021;-58
2023/10/14 00:12:53;;;;;;;7.20;3.83;;;24.90;65.60;;;;;;6216523;28;80815;-58
2023/10/14 00:15:53;;;;;;;6.97;3.63;;;24.90;65.50;;;;;;6217134;28;83188;-55
2023/10/14 00:18:55;;;;;;;5.32;3.60;;;24.80;65.70;;;;;;6216402;27;80713;-56
2023/10/14 00:21:56;;;;;;;4.97;3.33;;;24.80;65.70;;;;;;6221554;28;80942;-54
2023/10/14 00:24:58;;;;;;;7.45;3.50;;;24.90;65.60;;;;;;6209452;28;80830;-56
2023/10/14 00:28:06;;;;;;;5.78;3.55;;;24.90;65.60;;;;;;6230657;27;81061;-58
2023/10/14 00:31:07;;;;;;;5.88;3.72;;;24.80;65.60;;;;;;6205180;28;80903;-66
2023/10/14 00:34:07;;;;;;;5.25;3.28;;;24.80;65.50;;;;;;6226218;27;81633;-64
2023/10/14 00:37:08;;;;;;;5.03;3.20;;;24.90;65.70;;;;;;6243509;27;83152;-64
2023/10/14 00:40:12;;;;;;;7.22;3.78;;;24.80;65.80;;;;;;6228008;28;83761;-64
2023/10/14 00:43:13;;;;;;;4.68;3.22;;;24.90;65.80;;;;;;6227641;27;80334;-66
2023/10/14 00:46:14;;;;;;;3.85;2.92;;;24.90;65.80;;;;;;6226883;27;81376;-63
2023/10/14 00:49:15;;;;;;;6.57;3.25;;;24.90;65.80;;;;;;6227307;27;80586;-56
2023/10/14 00:52:18;;;;;;;6.28;3.63;;;24.80;65.80;;;;;;6221592;27;81665;-58
2023/10/14 00:55:24;;;;;;;6.53;3.30;;;24.80;65.60;;;;;;6218239;27;83339;-58
2023/10/14 00:58:28;;;;;;;5.95;3.50;;;24.80;65.30;;;;;;6225589;28;80836;-58
2023/10/14 01:01:28;;;;;;;9.68;4.20;;;24.90;65.30;;;;;;6225194;28;83420;-59
2023/10/14 01:04:32;;;;;;;7.90;3.53;;;24.80;65.10;;;;;;6224032;28;80486;-60
2023/10/14 01:07:33;;;;;;;5.25;3.42;;;24.90;65.30;;;;;;6233766;28;82201;-61
2023/10/14 01:10:34;;;;;;;6.90;3.58;;;24.90;64.80;;;;;;6220465;27;81184;-60
2023/10/14 01:13:34;;;;;;;4.90;3.47;;;24.90;64.80;;;;;;6224428;28;80237;-63
2023/10/14 01:16:39;;;;;;;5.15;3.35;;;24.90;64.70;;;;;;6223504;28;81437;-59
2023/10/14 01:19:39;;;;;;;4.63;3.05;;;24.90;64.60;;;;;;6223415;28;82135;-60
2023/10/14 01:22:43;;;;;;;9.48;3.88;;;24.90;64.70;;;;;;6226717;27;80367;-60
2023/10/14 01:25:47;;;;;;;6.57;3.75;;;24.90;64.80;;;;;;6202662;28;80563;-59
2023/10/14 01:28:58;;;;;;;7.40;3.35;;;24.90;64.50;;;;;;6223396;27;80507;-59
2023/10/14 01:32:04;;;;;;;10.88;3.72;;;24.90;64.70;;;;;;6239419;27;83543;-58
2023/10/14 01:38:34;;;;;;;5.43;3.22;;;24.90;64.30;;;;;;6220361;27;82161;-60
2023/10/14 01:41:35;;;;;;;4.32;3.20;;;24.90;64.20;;;;;;6224247;27;80502;-59
2023/10/14 01:44:35;;;;;;;9.68;3.20;;;24.90;64.40;;;;;;6223095;28;80501;-62
2023/10/14 01:47:47;;;;;;;5.82;3.42;;;24.90;64.10;;;;;;6213412;28;80345;-61
2023/10/14 01:50:56;;;;;;;6.85;3.47;;;24.90;64.30;;;;;;6224693;28;83183;-60
2023/10/14 01:53:56;;;;;;;6.00;3.10;;;24.90;64.40;;;;;;6222526;28;81815;-61
2023/10/14 01:56:57;;;;;;;7.05;3.38;;;24.90;64.00;;;;;;6214868;27;80084;-61
2023/10/14 01:59:57;;;;;;;5.90;3.05;;;24.90;64.10;;;;;;6221870;28;83676;-61
2023/10/14 02:03:05;;;;;;;8.38;2.92;;;24.90;63.80;;;;;;6222282;28;83712;-61
2023/10/14 02:07:03;;;;;;;5.18;3.17;;;24.90;63.80;;;;;;6211616;28;80269;-60
2023/10/14 02:09:33;;;;;;;7.53;3.00;;;24.90;63.80;;;;;;6198850;28;84525;-62
2023/10/14 02:12:35;;;;;;;5.22;2.72;;;24.90;63.80;;;;;;6201906;28;80513;-61
2023/10/14 02:15:37;;;;;;;8.00;3.25;;;24.90;63.60;;;;;;6220747;27;80549;-62
2023/10/14 02:18:38;;;;;;;5.15;2.63;;;24.90;63.50;;;;;;6222927;28;84976;-61
2023/10/14 02:21:42;;;;;;;6.55;2.80;;;24.90;63.60;;;;;;6224606;28;80636;-61
2023/10/14 02:24:43;;;;;;;7.10;3.05;;;24.90;63.70;;;;;;6223482;28;81815;-62
2023/10/14 02:27:44;;;;;;;5.15;3.03;;;24.90;63.70;;;;;;6224628;27;82320;-62
2023/10/14 02:30:51;;;;;;;6.47;3.40;;;24.90;63.60;;;;;;6229162;28;80857;-62
2023/10/14 02:33:52;;;;;;;6.53;2.92;;;24.90;63.70;;;;;;6228788;27;82381;-61
2023/10/14 02:36:52;;;;;;;7.63;3.60;;;24.90;63.80;;;;;;6227444;27;81356;-63
2023/10/14 02:39:53;;;;;;;3.92;2.95;;;24.90;63.90;;;;;;6228557;27;81777;-69
2023/10/14 02:42:57;;;;;;;5.13;2.60;;;24.90;63.90;;;;;;6232122;27;83099;-67
2023/10/14 02:46:00;;;;;;;4.43;3.17;;;24.90;63.90;;;;;;6232988;27;83575;-66
2023/10/14 02:49:06;;;;;;;10.07;3.45;;;24.80;63.80;;;;;;6228431;28;80830;-68
2023/10/14 02:52:18;;;;;;;7.85;3.35;;;24.80;63.80;;;;;;6227982;27;80484;-68
2023/10/14 02:55:24;;;;;;;5.45;3.50;;;24.80;63.70;;;;;;6226517;27;83213;-67
2023/10/14 02:58:25;;;;;;;5.15;2.90;;;24.80;63.80;;;;;;6217546;27;80410;-69
2023/10/14 03:01:31;;;;;;;4.55;3.28;;;24.80;63.80;;;;;;6214148;28;81653;-67
2023/10/14 03:04:39;;;;;;;6.68;2.75;;;24.80;63.90;;;;;;6228123;28;80723;-67
2023/10/14 03:07:50;;;;;;;3.45;2.22;;;24.80;64.00;;;;;;6227634;27;81939;-66
2023/10/14 03:10:59;;;;;;;7.70;2.85;;;24.80;64.00;;;;;;6234041;28;82169;-65
2023/10/14 03:13:59;;;;;;;4.97;2.90;;;24.80;64.00;;;;;;6241604;27;81346;-66
2023/10/14 03:17:00;;;;;;;3.78;2.63;;;24.80;63.80;;;;;;6229250;27;80565;-61
2023/10/14 03:20:09;;;;;;;4.78;3.00;;;24.80;64.00;;;;;;6227358;28;82121;-62
2023/10/14 03:23:18;;;;;;;3.42;2.35;;;24.80;63.80;;;;;;6245274;27;80842;-62
2023/10/14 03:26:20;;;;;;;4.90;2.65;;;24.80;63.80;;;;;;6223873;27;81665;-64
2023/10/14 03:29:23;;;;;;;6.97;2.90;;;24.80;63.80;;;;;;6219612;28;81241;-62
2023/10/14 03:32:32;;;;;;;7.80;2.60;;;24.80;63.80;;;;;;6217053;28;81588;-62
2023/10/14 03:35:32;;;;;;;5.18;2.83;;;24.80;63.70;;;;;;6219952;28;81404;-59
2023/10/14 03:41:37;;;;;;;9.05;3.55;;;24.90;63.30;;;;;;6227282;27;80397;-59
2023/10/14 03:44:41;;;;;;;3.75;2.35;;;24.90;63.00;;;;;;6221508;27;80886;-58
2023/10/14 03:47:42;;;;;;;4.88;2.92;;;25.00;62.80;;;;;;6206519;28;80593;-59
2023/10/14 03:50:42;;;;;;;4.05;2.67;;;24.90;62.80;;;;;;6201301;27;83411;-58
2023/10/14 03:53:43;;;;;;;7.28;2.80;;;25.00;62.50;;;;;;6218014;28;81012;-61
2023/10/14 03:56:46;;;;;;;5.03;2.55;;;25.00;62.60;;;;;;6216028;27;83747;-62
2023/10/14 03:59:48;;;;;;;6.57;2.90;;;25.00;62.70;;;;;;6222451;27;82341;-61
2023/10/14 04:02:48;;;;;;;7.18;3.00;;;25.00;62.70;;;;;;6216477;28;80075;-61
2023/10/14 04:05:52;;;;;;;4.28;2.70;;;25.10;62.80;;;;;;6218618;27;80889;-61
2023/10/14 04:08:54;;;;;;;4.32;2.65;;;25.10;63.00;;;;;;6213279;28;84169;-61
2023/10/14 04:11:59;;;;;;;4.72;3.13;;;25.10;63.30;;;;;;6219224;28;80801;-59
2023/10/14 04:15:15;;;;;;;7.70;3.07;;;25.10;63.30;;;;;;6218615;28;83070;-58
2023/10/14 04:18:21;;;;;;;4.90;3.05;;;25.10;63.50;;;;;;6220326;27;80478;-61
2023/10/14 04:21:34;;;;;;;4.65;2.90;;;25.10;63.20;;;;;;6223294;28;80391;-60
2023/10/14 04:27:36;;;;;;;7.15;3.22;;;25.10;63.50;;;;;;6224071;28;80808;-60
2023/10/14 04:30:44;;;;;;;6.13;2.95;;;25.10;63.60;;;;;;6224331;28;80824;-66
2023/10/14 04:33:44;;;;;;;7.20;3.03;;;25.10;63.70;;;;;;6221128;27;87534;-63
2023/10/14 04:36:53;;;;;;;6.38;3.92;;;25.10;63.70;;;;;;6217573;28;80911;-62
2023/10/14 04:39:58;;;;;;;3.78;2.65;;;25.10;64.20;;;;;;6218534;28;80558;-65
2023/10/14 04:42:59;;;;;;;4.38;2.70;;;25.10;64.20;;;;;;6217633;27;81262;-64
2023/10/14 04:46:16;;;;;;;10.30;3.50;;;25.10;64.30;;;;;;6219303;28;80329;-62
2023/10/14 04:49:29;;;;;;;7.28;3.17;;;25.10;64.10;;;;;;6221765;28;81694;-60
2023/10/14 04:52:29;;;;;;;8.63;3.85;;;25.10;64.30;;;;;;6229345;28;80449;-63
2023/10/14 04:55:32;;;;;;;15.13;3.67;;;25.20;63.80;;;;;;6217116;28;80423;-63
2023/10/14 04:58:32;;;;;;;6.85;3.40;;;25.10;64.40;;;;;;6213657;27;80830;-62
2023/10/14 05:01:33;;;;;;;7.45;3.80;;;25.10;64.20;;;;;;6225696;27;87253;-66
2023/10/14 05:04:37;;;;;;;8.40;3.63;;;25.20;64.30;;;;;;6223529;28;80170;-67
2023/10/14 05:07:37;;;;;;;8.27;3.50;;;25.20;64.60;;;;;;6225809;28;80856;-60
2023/10/14 05:10:42;;;;;;;7.88;3.58;;;25.10;64.50;;;;;;6217790;28;80913;-59
2023/10/14 05:13:42;;;;;;;11.15;3.88;;;25.10;64.80;;;;;;6216195;28;83519;-53
2023/10/14 05:20:00;;;;;;;7.20;3.70;;;25.10;64.80;;;;;;6220345;27;80321;-58
2023/10/14 05:23:00;;;;;;;10.18;4.05;;;25.10;64.70;;;;;;6226520;27;80338;-59
2023/10/14 05:26:06;;;;;;;9.18;3.88;;;25.10;64.60;;;;;;6236246;27;80730;-58
2023/10/14 05:29:19;;;;;;;;;;;25.10;64.50;;;;;;6222067;28;82589;-58
2023/10/14 05:32:23;;;;;;;13.93;4.35;;;25.10;64.50;;;;;;6229952;28;79139;-58
2023/10/14 05:35:24;;;;;;;11.05;3.33;;;25.10;64.80;;;;;;6225425;28;84178;-59
2023/10/14 05:38:25;;;;;;;11.95;4.10;;;25.10;64.90;;;;;;6223088;28;86274;-58
2023/10/14 05:41:26;;;;;;;7.90;3.70;;;25.10;65.20;;;;;;6225058;28;80286;-59
2023/10/14 05:44:29;;;;;;;6.95;3.30;;;25.10;65.10;;;;;;6225764;27;80256;-59
2023/10/14 05:47:30;;;;;;;10.13;3.53;;;25.10;65.00;;;;;;6214019;28;81275;-58
2023/10/14 05:50:31;;;;;;;8.20;3.40;;;25.10;65.30;;;;;;6226140;28;80882;-60
2023/10/14 05:53:31;;;;;;;7.43;4.18;;;25.10;65.20;;;;;;6225732;28;81481;-60
2023/10/14 05:56:32;;;;;;;8.30;3.38;;;25.10;64.90;;;;;;6225694;27;80356;-60
2023/10/14 05:59:33;;;;;;;10.82;3.50;;;25.10;65.30;;;;;;6225174;28;81292;-59
2023/10/14 06:02:33;;;;;;;6.28;3.42;;;25.10;65.40;;;;;;6225706;27;80135;-60
2023/10/14 06:05:35;;;;;;;11.50;4.00;;;25.20;65.60;;;;;;6225240;28;81903;-54
2023/10/14 06:08:36;;;;;;;13.70;4.22;;;25.20;65.70;;;;;;6223291;27;82971;-59
2023/10/14 06:11:36;;;;;;;11.13;4.13;;;25.20;66.00;;;;;;6220795;28;80539;-59
2023/10/14 06:14:37;;;;;;;11.77;3.80;;;25.20;66.10;;;;;;6218720;27;80863;-59
2023/10/14 06:17:38;;;;;;;12.35;4.20;;;25.20;66.40;;;;;;6230762;27;80369;-59
2023/10/14 06:20:39;;;;;;;9.57;3.72;;;25.30;66.30;;;;;;6223403;27;84939;-71
2023/10/14 06:23:39;;;;;;;8.52;3.28;;;25.30;66.50;;;;;;6217663;28;80972;-69
2023/10/14 06:26:40;;;;;;;13.55;4.45;;;25.30;66.80;;;;;;6218640;28;83616;-77
2023/10/14 06:29:42;;;;;;;8.48;3.90;;;25.30;66.70;;;;;;6222625;28;82830;-65
2023/10/14 06:32:43;;;;;;;10.05;3.60;;;25.30;66.90;;;;;;6216476;28;81317;-68
2023/10/14 06:35:43;;;;;;;11.32;4.25;;;25.30;67.20;;;;;;6225621;27;80494;-76
2023/10/14 06:38:44;;;;;;;11.55;3.95;;;25.40;67.00;;;;;;6220265;28;81500;-80
2023/10/14 06:41:45;;;;;;;12.13;4.00;;;25.40;66.90;;;;;;6214359;28;80592;-68
2023/10/14 06:44:46;;;;;;;6.97;3.88;;;25.40;66.50;;;;;;6227240;28;83647;-66
2023/10/14 06:47:50;;;;;;;16.92;4.63;;;25.40;66.40;;;;;;6203624;28;81894;-68
2023/10/14 06:50:54;;;;;;;9.00;4.20;;;25.50;66.50;;;;;;6209738;28;80645;-68
2023/10/14 06:53:55;;;;;;;8.48;4.05;;;25.50;65.30;;;;;;6219537;28;80745;-67
2023/10/14 06:56:55;;;;;;;9.02;3.70;;;25.50;65.00;;;;;;6203550;27;80374;-65
2023/10/14 06:59:57;;;;;;;12.27;4.07;;;25.50;65.00;;;;;;6225374;28;80607;-64
2023/10/14 07:02:59;;;;;;;8.15;3.85;;;25.50;65.10;;;;;;6205435;28;82501;-67
2023/10/14 07:05:59;;;;;;;9.00;3.92;;;25.60;65.10;;;;;;6220572;28;80586;-63
2023/10/14 07:09:05;;;;;;;10.05;3.50;;;25.60;64.80;;;;;;6220836;27;80987;-67
2023/10/14 07:12:13;;;;;;;9.07;3.88;;;25.60;64.70;;;;;;6215529;28;84056;-66
2023/10/14 07:15:13;;;;;;;8.98;4.07;;;25.60;64.90;;;;;;6221800;28;84894;-68
2023/10/14 07:18:14;;;;;;;12.63;4.00;;;25.50;56.60;;;;;;6228635;27;81349;-64
2023/10/14 07:21:15;;;;;;;10.57;4.15;;;25.30;56.80;;;;;;6226507;27;80513;-65
2023/10/14 07:24:16;;;;;;;11.32;4.53;;;25.30;56.10;;;;;;6216239;27;80580;-74
2023/10/14 07:27:18;;;;;;;12.00;5.47;;;25.40;56.80;;;;;;6186998;28;82190;-74
2023/10/14 07:30:18;;;;;;;17.08;6.18;;;25.40;55.40;;;;;;6211751;28;86018;-74
2023/10/14 07:33:19;;;;;;;12.77;5.22;;;25.40;56.30;;;;;;6223645;28;80875;-64
2023/10/14 07:36:20;;;;;;;11.13;5.32;;;25.50;56.80;;;;;;6229564;27;80691;-76
2023/10/14 07:39:30;;;;;;;15.88;6.07;;;25.50;56.70;;;;;;6229105;28;80773;-68
2023/10/14 07:42:30;;;;;;;14.02;6.10;;;25.50;57.30;;;;;;6226759;28;88060;-65
2023/10/14 07:45:33;;;;;;;18.20;6.07;;;25.50;57.60;;;;;;6228890;28;82501;-60
2023/10/14 07:48:34;;;;;;;13.85;4.60;;;25.60;57.80;;;;;;6228870;28;81837;-64
2023/10/14 07:51:34;;;;;;;15.15;6.57;;;25.70;56.70;;;;;;6226629;27;83830;-63
2023/10/14 07:54:37;;;;;;;11.90;4.93;;;25.80;57.50;;;;;;6228655;27;80451;-58
2023/10/14 07:57:40;;;;;;;20.25;7.07;;;25.80;57.00;;;;;;6225058;27;83504;-60
2023/10/14 08:00:41;;;;;;;13.57;5.13;;;25.90;58.10;;;;;;6228474;27;83136;-55
2023/10/14 08:03:42;;;;;;;13.02;6.07;;;25.90;58.30;;;;;;6217532;27;84486;-60
2023/10/14 08:06:43;;;;;;;12.60;5.82;;;25.90;58.10;;;;;;6223948;28;80506;-58
2023/10/14 08:09:44;;;;;;;15.40;4.97;;;26.00;57.60;;;;;;6226573;28;85074;-58
2023/10/14 08:12:44;;;;;;;13.27;5.60;;;26.00;56.60;;;;;;6223708;28;80892;-67
2023/10/14 08:15:50;;;;;;;14.98;5.28;;;25.90;52.60;;;;;;6226410;27;80868;-66
2023/10/14 08:18:50;;;;;;;12.77;5.70;;;25.90;51.40;;;;;;6223351;28;83026;-69
2023/10/14 08:21:51;;;;;;;14.15;4.88;;;25.90;50.80;;;;;;6226909;27;80549;-68
2023/10/14 08:24:52;;;;;;;16.48;5.70;;;25.90;50.00;;;;;;6220621;28;80672;-68
2023/10/14 08:27:53;;;;;;;13.65;5.22;;;26.00;49.40;;;;;;6227189;28;80314;-65
2023/10/14 08:30:55;;;;;;;7.20;4.85;;;26.10;49.60;;;;;;6229024;28;80958;-68
2023/10/14 08:33:56;;;;;;;9.98;4.57;;;26.10;49.60;;;;;;6222251;27;80313;-71
2023/10/14 08:36:56;;;;;;;11.27;5.47;;;26.20;50.70;;;;;;6226763;28;81050;-76
2023/10/14 08:39:57;;;;;;;19.20;4.60;;;26.30;50.30;;;;;;6227814;27;81832;-74
2023/10/14 08:42:57;;;;;;;12.15;4.72;;;26.30;50.50;;;;;;6226793;28;80541;-77
2023/10/14 08:45:59;;;;;;;19.80;5.38;;;26.30;48.10;;;;;;6219663;28;80431;-74
2023/10/14 08:49:03;;;;;;;8.95;4.20;;;26.30;47.90;;;;;;6219825;28;80430;-73
2023/10/14 08:52:09;;;;;;;9.30;4.32;;;26.40;47.60;;;;;;6226232;28;80261;-76
2023/10/14 08:55:11;;;;;;;14.18;5.28;;;26.50;48.40;;;;;;6227488;27;81837;-69
2023/10/14 08:58:14;;;;;;;9.43;4.97;;;26.60;48.00;;;;;;6219525;27;82705;-69
2023/10/14 09:01:16;;;;;;;12.50;5.40;;;26.60;48.00;;;;;;6222833;27;80824;-71
2023/10/14 09:04:16;;;;;;;12.73;4.20;;;26.60;48.20;;;;;;6223207;27;81344;-75
2023/10/14 09:07:17;;;;;;;10.45;4.93;;;26.60;48.00;;;;;;6219640;28;80585;-75
2023/10/14 09:10:18;;;;;;;12.65;5.03;;;26.70;47.00;;;;;;6226980;28;82488;-72
2023/10/14 09:13:22;;;;;;;13.23;4.75;;;26.70;48.00;;;;;;6226330;28;81583;-75
2023/10/14 09:16:22;;;;;;;13.38;5.30;;;26.80;46.70;;;;;;6227572;28;80441;-68
2023/10/14 09:19:23;;;;;;;13.65;5.07;;;26.80;47.60;;;;;;6226651;28;80356;-68
2023/10/14 09:22:24;;;;;;;10.63;5.22;;;26.80;46.90;;;;;;6227039;28;80952;-72
2023/10/14 09:25:24;;;;;;;21.90;5.75;;;26.90;46.60;;;;;;6226375;28;81616;-66
2023/10/14 09:28:26;;;;;;;8.52;4.53;;;26.90;47.40;;;;;;6226157;28;80968;-67
2023/10/14 09:31:27;;;;;;;9.63;4.70;;;26.90;47.40;;;;;;6212889;28;80856;-68
2023/10/14 09:34:30;;;;;;;14.35;5.47;;;27.00;48.60;;;;;;6212783;28;80240;-66
2023/10/14 09:37:31;;;;;;;10.25;4.90;;;27.00;48.40;;;;;;6205927;28;80892;-62
2023/10/14 09:40:32;;;;;;;9.32;5.85;;;27.10;47.70;;;;;;6223378;28;80501;-65
2023/10/14 09:43:33;;;;;;;12.32;5.15;;;27.20;47.90;;;;;;6226761;28;80630;-67
2023/10/14 09:46:33;;;;;;;9.05;5.65;;;27.20;49.10;;;;;;6226413;28;80583;-71
2023/10/14 09:49:35;;;;;;;11.20;5.68;;;27.20;47.50;;;;;;6226088;28;81858;-73
2023/10/14 09:52:35;;;;;;;10.00;5.32;;;27.30;50.50;;;;;;6226255;28;81311;-73
2023/10/14 09:55:37;;;;;;;7.68;5.22;;;27.30;49.80;;;;;;6222828;28;81051;-67
2023/10/14 09:58:41;;;;;;;10.50;5.47;;;27.30;48.50;;;;;;6221073;28;80447;-77
2023/10/14 10:01:43;;;;;;;15.35;5.70;;;27.40;48.40;;;;;;6215713;28;82710;-69
2023/10/14 10:04:45;;;;;;;12.25;5.85;;;27.40;48.70;;;;;;6238720;27;80507;-71
2023/10/14 10:07:45;;;;;;;13.35;5.70;;;27.50;48.50;;;;;;6221954;27;85124;-70
2023/10/14 10:10:47;;;;;;;11.70;5.70;;;27.50;48.10;;;;;;6215515;28;80924;-70
2023/10/14 10:13:47;;;;;;;10.48;5.75;;;27.50;46.90;;;;;;6196365;28;85907;-76
2023/10/14 10:16:48;;;;;;;9.55;5.72;;;27.60;47.70;;;;;;6217202;28;80734;-67
2023/10/14 10:19:49;;;;;;;10.82;6.15;;;27.60;48.10;;;;;;6222397;28;80288;-68
2023/10/14 10:22:52;;;;;;;15.85;6.20;;;27.70;48.30;;;;;;6221217;28;81525;-71
2023/10/14 10:25:53;;;;;;;14.73;6.40;;;27.70;48.60;;;;;;6219753;28;80413;-70
2023/10/14 10:28:54;;;;;;;10.18;5.50;;;27.70;47.50;;;;;;6217375;28;81195;-72
2023/10/14 10:31:54;;;;;;;15.00;6.13;;;27.70;48.60;;;;;;6218108;28;81968;-72
2023/10/14 10:34:55;;;;;;;11.48;5.60;;;27.70;48.80;;;;;;6215176;28;80573;-73
2023/10/14 10:37:56;;;;;;;10.60;5.50;;;27.80;48.00;;;;;;6218026;28;80779;-71
2023/10/14 10:40:56;;;;;;;11.77;5.82;;;27.80;50.20;;;;;;6214167;28;83753;-70
2023/10/14 10:43:58;;;;;;;13.13;6.57;;;27.80;51.30;;;;;;6219957;28;80542;-72
2023/10/14 10:46:58;;;;;;;10.57;6.00;;;27.80;48.80;;;;;;6220560;28;80612;-75
2023/10/14 10:49:59;;;;;;;12.13;5.78;;;27.90;49.10;;;;;;6223328;28;80864;-74
2023/10/14 10:52:59;;;;;;;13.75;6.18;;;27.90;51.70;;;;;;6224528;27;81957;-74
2023/10/14 10:56:00;;;;;;;13.43;6.00;;;27.90;49.40;;;;;;6224453;27;81031;-74
2023/10/14 10:59:04;;;;;;;10.30;5.78;;;28.00;50.80;;;;;;6226357;27;80840;-75
2023/10/14 11:02:05;;;;;;;16.38;6.32;;;28.00;48.90;;;;;;6229063;27;80280;-75
2023/10/14 11:05:06;;;;;;;13.30;5.78;;;28.00;48.40;;;;;;6228701;27;80890;-75
2023/10/14 11:08:06;;;;;;;14.40;6.88;;;28.00;50.70;;;;;;6230597;27;80500;-77
2023/10/14 11:11:07;;;;;;;15.35;5.88;;;28.00;48.90;;;;;;6228464;28;80522;-76
2023/10/14 11:14:07;;;;;;;11.82;5.75;;;28.10;48.80;;;;;;6250228;27;80860;-77
2023/10/14 11:17:08;;;;;;;11.70;5.40;;;28.00;48.90;;;;;;6234264;28;80496;-76
2023/10/14 11:20:09;;;;;;;14.10;6.07;;;28.10;50.00;;;;;;6232268;27;81826;-75
2023/10/14 11:23:10;;;;;;;9.35;5.60;;;28.10;48.60;;;;;;6237908;27;80123;-75
2023/10/14 11:26:11;;;;;;;11.57;6.03;;;28.10;50.60;;;;;;6221634;27;80775;-76
2023/10/14 11:29:12;;;;;;;15.25;6.57;;;28.10;48.90;;;;;;6229645;28;80091;-73
2023/10/14 11:32:14;;;;;;;11.35;6.93;;;28.20;49.40;;;;;;6241527;27;80376;-73
2023/10/14 11:35:16;;;;;;;10.98;5.78;;;28.20;49.20;;;;;;6238301;27;83228;-71
2023/10/14 11:38:16;;;;;;;12.32;5.53;;;28.20;49.00;;;;;;6242315;27;81673;-68
2023/10/14 11:41:17;;;;;;;11.27;5.60;;;28.20;49.50;;;;;;6235958;27;80437;-68
2023/10/14 11:44:18;;;;;;;10.98;5.60;;;28.20;48.90;;;;;;6232689;27;80484;-60
2023/10/14 11:47:18;;;;;;;15.05;5.78;;;28.20;49.10;;;;;;6227654;28;80344;-66
2023/10/14 11:50:19;;;;;;;7.97;5.45;;;28.20;50.20;;;;;;6228279;28;81834;-61
2023/10/14 11:53:19;;;;;;;16.92;7.07;;;28.20;48.60;;;;;;6227990;28;80915;-62
2023/10/14 11:56:20;;;;;;;12.98;6.85;;;28.10;49.60;;;;;;6227185;27;81595;-69
2023/10/14 11:59:21;;;;;;;16.15;6.50;;;28.20;51.10;;;;;;6225981;27;80624;-67
2023/10/14 12:02:23;;;;;;;11.60;5.63;;;28.20;49.00;;;;;;6224350;27;80882;-63
2023/10/14 12:05:24;;;;;;;14.20;6.10;;;28.30;49.40;;;;;;6228414;27;80872;-65
2023/10/14 12:08:25;;;;;;;15.63;6.28;;;28.30;51.30;;;;;;6228205;28;80858;-67
2023/10/14 12:11:27;;;;;;;11.48;6.13;;;28.10;49.90;;;;;;6225125;28;81535;-65
2023/10/14 12:14:27;;;;;;;16.52;6.25;;;28.00;49.90;;;;;;6238297;27;80636;-68
2023/10/14 12:17:28;;;;;;;16.15;5.95;;;27.90;49.70;;;;;;6227957;27;80437;-64
2023/10/14 12:20:31;;;;;;;11.60;6.45;;;27.80;49.10;;;;;;6224287;27;81982;-64
2023/10/14 12:23:32;;;;;;;16.27;5.97;;;27.80;52.00;;;;;;6220448;27;81403;-64
2023/10/14 12:26:33;;;;;;;12.95;6.07;;;27.70;50.30;;;;;;6216529;28;80830;-65
2023/10/14 12:29:35;;;;;;;11.48;6.00;;;27.70;50.30;;;;;;6210171;28;80771;-65
2023/10/14 12:32:36;;;;;;;18.33;7.40;;;27.70;50.00;;;;;;6236768;27;80510;-63
2023/10/14 12:35:40;;;;;;;11.63;6.38;;;27.70;49.70;;;;;;6227972;28;81606;-64
2023/10/14 12:38:42;;;;;;;13.38;6.20;;;27.60;50.50;;;;;;6226582;27;81345;-64
2023/10/14 12:41:43;;;;;;;16.95;6.13;;;27.60;50.90;;;;;;6227745;27;80536;-66
2023/10/14 12:44:48;;;;;;;15.07;6.20;;;27.50;50.30;;;;;;6228315;27;80527;-64
2023/10/14 12:47:48;;;;;;;14.73;7.23;;;27.50;50.90;;;;;;6241684;28;80903;-65
2023/10/14 12:50:51;;;;;;;16.38;6.22;;;27.40;51.10;;;;;;6227729;28;80522;-64
2023/10/14 12:53:57;;;;;;;15.13;6.15;;;27.50;51.20;;;;;;6225908;28;83317;-64
2023/10/14 12:56:58;;;;;;;19.42;6.80;;;27.50;50.90;;;;;;6226779;28;80468;-66
2023/10/14 12:59:59;;;;;;;14.40;6.32;;;27.30;51.90;;;;;;6228154;27;80869;-63
2023/10/14 13:03:00;;;;;;;17.15;7.32;;;27.30;51.50;;;;;;6226105;28;82695;-65
2023/10/14 13:06:01;;;;;;;16.70;6.50;;;27.30;51.70;;;;;;6213822;28;81975;-62
2023/10/14 13:09:01;;;;;;;13.00;6.75;;;27.20;51.60;;;;;;6227212;28;80741;-61
2023/10/14 13:12:08;;;;;;;14.38;6.80;;;27.30;53.10;;;;;;6216441;28;83210;-65
2023/10/14 13:15:09;;;;;;;21.58;7.20;;;27.30;52.90;;;;;;6219347;27;80450;-64
2023/10/14 13:18:12;;;;;;;13.77;6.18;;;27.40;54.50;;;;;;6217417;28;82303;-64
2023/10/14 13:21:18;;;;;;;17.90;6.80;;;27.30;53.60;;;;;;6226218;27;80614;-63
2023/10/14 13:24:18;;;;;;;;;;;27.30;52.90;;;;;;6224609;28;80741;-62
2023/10/14 13:27:19;;;;;;;22.65;6.75;;;27.30;53.60;;;;;;6234354;28;80175;-65
2023/10/14 13:30:23;;;;;;;13.50;6.82;;;27.20;55.20;;;;;;6225338;28;81393;-62
2023/10/14 13:33:24;;;;;;;14.70;7.20;;;27.10;53.70;;;;;;6226528;28;80665;-62
2023/10/14 13:36:25;;;;;;;8.65;6.07;;;27.10;53.30;;;;;;6227101;27;81210;-63
2023/10/14 13:39:34;;;;;;;18.35;7.30;;;27.10;53.40;;;;;;6226625;28;86219;-64
2023/10/14 13:42:35;;;;;;;15.52;6.60;;;27.00;53.30;;;;;;6226506;27;81812;-62
2023/10/14 13:45:40;;;;;;;12.50;6.65;;;26.90;53.30;;;;;;6232400;28;82061;-61
2023/10/14 13:48:40;;;;;;;16.40;6.40;;;26.90;53.00;;;;;;6225682;28;82472;-61
2023/10/14 13:51:41;;;;;;;12.55;6.85;;;26.90;53.00;;;;;;6225927;28;81511;-62
2023/10/14 13:54:41;;;;;;;17.50;6.90;;;26.80;53.20;;;;;;6224344;27;81534;-62
2023/10/14 13:57:44;;;;;;;17.42;7.68;;;26.90;53.20;;;;;;6225006;27;80508;-60
2023/10/14 14:00:49;;;;;;;15.13;8.30;;;26.90;53.20;;;;;;6222772;27;81062;-66
2023/10/14 14:03:57;;;;;;;18.70;8.60;;;26.80;52.90;;;;;;6231617;27;80339;-67
2023/10/14 14:06:58;;;;;;;17.02;7.75;;;26.80;53.10;;;;;;6217053;28;80749;-65
2023/10/14 14:09:58;;;;;;;14.80;7.80;;;26.80;53.00;;;;;;6224077;28;80335;-70
2023/10/14 14:12:59;;;;;;;16.20;8.13;;;26.70;53.30;;;;;;6224448;27;80209;-69
2023/10/14 14:16:01;;;;;;;15.85;6.82;;;26.70;53.40;;;;;;6220572;28;81141;-70
2023/10/14 14:19:02;;;;;;;13.10;7.57;;;26.60;53.20;;;;;;6215725;28;80339;-72
2023/10/14 14:22:05;;;;;;;17.27;7.13;;;26.60;53.70;;;;;;6213535;27;82527;-72
2023/10/14 14:25:05;;;;;;;15.38;6.97;;;26.50;53.60;;;;;;6214752;28;81588;-71
2023/10/14 14:28:06;;;;;;;13.70;6.78;;;26.50;53.90;;;;;;6227336;28;81592;-71
2023/10/14 14:31:06;;;;;;;12.77;7.38;;;26.40;53.80;;;;;;6233672;28;80420;-67
2023/10/14 14:34:09;;;;;;;13.50;7.65;;;26.40;54.10;;;;;;6230852;27;80687;-67
2023/10/14 14:37:09;;;;;;;16.80;6.93;;;26.20;54.30;;;;;;6229762;27;81579;-63
2023/10/14 14:40:13;;;;;;;13.98;7.40;;;26.10;54.50;;;;;;6230579;27;80677;-64
2023/10/14 14:43:14;;;;;;;19.63;8.13;;;26.10;54.70;;;;;;6230125;27;80131;-58
2023/10/14 14:46:14;;;;;;;19.20;7.55;;;26.00;54.80;;;;;;6228967;28;80788;-62
2023/10/14 14:49:15;;;;;;;15.70;7.30;;;26.00;55.00;;;;;;6228252;28;80620;-64
2023/10/14 14:52:19;;;;;;;14.45;7.47;;;25.90;54.70;;;;;;6234953;28;81569;-63
2023/10/14 14:55:20;;;;;;;18.38;7.63;;;25.90;54.90;;;;;;6233684;27;81001;-62
2023/10/14 14:58:21;;;;;;;15.82;6.97;;;25.90;54.90;;;;;;6233754;27;80765;-63
2023/10/14 15:01:24;;;;;;;12.40;7.57;;;25.70;54.70;;;;;;6231556;27;80219;-65
2023/10/14 15:04:26;;;;;;;13.18;6.50;;;25.60;54.90;;;;;;6231493;27;83910;-64
2023/10/14 15:07:27;;;;;;;13.98;7.20;;;25.70;55.00;;;;;;6229664;27;85927;-62
2023/10/14 15:10:29;;;;;;;19.52;7.57;;;25.50;55.10;;;;;;6231786;27;80778;-63
2023/10/14 15:13:31;;;;;;;11.55;6.82;;;25.70;55.40;;;;;;6228141;28;80578;-65
2023/10/14 15:16:32;;;;;;;14.52;7.18;;;25.80;55.30;;;;;;6231740;27;80245;-69
2023/10/14 15:19:33;;;;;;;15.95;7.68;;;25.90;55.40;;;;;;6233517;27;80965;-68
2023/10/14 15:22:34;;;;;;;13.60;8.23;;;25.90;55.20;;;;;;6232757;28;81267;-71
2023/10/14 15:25:37;;;;;;;13.93;7.65;;;25.90;55.20;;;;;;6233042;28;80946;-70
2023/10/14 15:28:39;;;;;;;11.73;7.20;;;25.90;54.80;;;;;;6232667;28;80383;-70
2023/10/14 15:31:41;;;;;;;22.25;7.55;;;25.90;55.20;;;;;;6203030;28;82372;-65
2023/10/14 15:34:41;;;;;;;19.42;7.40;;;25.90;55.20;;;;;;6202769;27;82286;-70
2023/10/14 15:37:42;;;;;;;19.52;7.78;;;25.80;55.00;;;;;;6213395;28;82750;-68
2023/10/14 15:40:42;;;;;;;15.27;7.60;;;25.70;55.40;;;;;;6215264;28;82327;-65
2023/10/14 15:43:43;;;;;;;12.00;6.13;;;25.70;55.50;;;;;;6222634;27;81531;-67
2023/10/14 15:46:44;;;;;;;11.85;6.93;;;25.70;55.60;;;;;;6216705;28;83182;-68
2023/10/14 15:49:44;;;;;;;10.73;6.53;;;25.70;55.40;;;;;;6214352;28;85996;-63
2023/10/14 15:52:46;;;;;;;14.25;6.88;;;25.70;55.50;;;;;;6229066;28;80958;-64